Colbrook, Connecticut
Current Conditions -  °F | °C
As of 2:53 AM on Friday 19 Dec 2014 (Local Time) from KBAF Reporting Station
Overcast Overcast  
Wind Chill: 28°   Ceiling: 3000
Heat Index: 35°   Visibility: 10mi
Dew Point: 23°   Wind: 9mph
Humidity: 61%   Direction: 320°NW
Pressure: 29.91"   Gusts: NA
Location:  42.0286°N, 73.1037°W
Report Text: KBAF 190753Z 32008KT 10SM BKN030 OVC043 02/M05 A2991 RMK AO2 SLP134 T00171050
Loading
Personal Weather Stations






























Interactive Weather Map New forecast layout! Learn more

10-Day Weather Forecast

Advertisements
Track Severe Weather on mobile